Time;durP1;ratioP1;P1;durP2;ratioP2;P2;SDS_P1;SDS_P2;PMS_P1;PMS_P2;Temp;Humidity;BMP_temperature;BMP_pressure;BME280_temperature;BME280_humidity;BME280_pressure;Samples;Min_cycle;Max_cycle;Signal;HPM_P1;HPM_P2
2022/06/13 00:03:37;;;;;;;3.47;1.92;;;20.30;99.90;;;;;;20835980;28;20041;-75
2022/06/13 00:13:39;;;;;;;7.13;2.38;;;20.20;99.90;;;;;;20834081;28;20111;-75
2022/06/13 00:23:40;;;;;;;6.78;2.45;;;20.00;99.90;;;;;;20834564;28;20047;-75
2022/06/13 00:33:41;;;;;;;3.30;2.20;;;19.50;99.90;;;;;;20834254;28;20072;-76
2022/06/13 00:43:44;;;;;;;3.07;2.23;;;19.70;99.90;;;;;;20833224;28;20124;-76
2022/06/13 00:53:46;;;;;;;4.28;2.53;;;20.00;99.90;;;;;;20831052;28;20057;-76
2022/06/13 01:03:46;;;;;;;;;;;20.20;99.90;;;;;;20832149;28;20072;-76
2022/06/13 01:13:59;;;;;;;3.30;2.03;;;20.10;99.90;;;;;;20830769;28;19936;-76
2022/06/13 01:24:21;;;;;;;4.82;2.92;;;20.10;99.90;;;;;;20830069;28;20042;-76
2022/06/13 01:34:44;;;;;;;5.82;2.80;;;20.00;99.90;;;;;;20828082;28;20041;-76
2022/06/13 01:45:02;;;;;;;4.72;2.58;;;20.00;99.90;;;;;;20827015;28;20041;-76
2022/06/13 01:55:15;;;;;;;3.38;2.75;;;20.00;99.90;;;;;;20828242;28;20124;-76
2022/06/13 02:05:41;;;;;;;7.15;2.90;;;19.40;99.90;;;;;;20832709;28;20092;-76
2022/06/13 02:15:52;;;;;;;5.05;3.28;;;19.30;99.90;;;;;;20823547;28;20077;-76
2022/06/13 02:26:04;;;;;;;10.00;3.07;;;19.20;99.90;;;;;;20825884;28;20049;-76
2022/06/13 02:36:15;;;;;;;8.53;3.33;;;19.20;99.90;;;;;;20823960;28;20503;-76
2022/06/13 02:46:38;;;;;;;5.43;3.03;;;19.00;99.90;;;;;;20824929;28;20045;-76
2022/06/13 03:07:31;;;;;;;6.05;3.45;;;19.10;99.90;;;;;;20844497;28;20069;-76
2022/06/13 03:17:55;;;;;;;9.57;3.88;;;18.90;99.90;;;;;;20850898;28;20092;-77
2022/06/13 03:28:34;;;;;;;12.07;5.15;;;18.40;99.90;;;;;;20846411;28;20052;-76
2022/06/13 03:38:42;;;;;;;11.77;6.30;;;18.00;99.90;;;;;;20846161;28;20144;-76
2022/06/13 03:49:07;;;;;;;14.77;6.53;;;17.90;99.90;;;;;;20844694;28;20041;-76
2022/06/13 03:59:20;;;;;;;8.73;6.10;;;17.80;99.90;;;;;;20837223;28;20044;-76
2022/06/13 04:09:32;;;;;;;12.88;6.57;;;17.80;99.90;;;;;;20880963;28;20040;-76
2022/06/13 04:19:45;;;;;;;12.02;6.22;;;17.80;99.90;;;;;;20896810;28;20075;-76
2022/06/13 04:29:53;;;;;;;11.85;6.00;;;17.80;99.90;;;;;;20864227;28;20071;-76
2022/06/13 04:40:00;;;;;;;13.05;6.75;;;17.80;99.90;;;;;;20839939;28;20373;-76
2022/06/13 04:50:03;;;;;;;14.05;6.20;;;17.80;99.90;;;;;;20833455;28;20061;-76
2022/06/13 05:00:10;;;;;;;12.30;5.95;;;17.80;99.90;;;;;;20832832;28;20033;-76
2022/06/13 05:10:16;;;;;;;6.72;5.05;;;18.00;99.90;;;;;;20839278;28;20049;-76
2022/06/13 05:20:31;;;;;;;6.80;4.68;;;18.20;99.90;;;;;;20834220;28;20557;-76
2022/06/13 05:30:32;;;;;;;11.02;5.78;;;18.30;99.90;;;;;;20830707;28;20092;-76
2022/06/13 05:40:32;;;;;;;9.23;5.13;;;18.20;99.90;;;;;;20839660;28;20042;-76
2022/06/13 05:50:34;;;;;;;6.13;3.63;;;18.50;99.90;;;;;;20829817;28;20033;-76
2022/06/13 06:00:40;;;;;;;7.53;3.50;;;18.30;99.90;;;;;;20827339;28;20041;-76
2022/06/13 06:10:42;;;;;;;6.43;2.90;;;18.50;99.90;;;;;;20828844;28;20406;-75
2022/06/13 06:20:43;;;;;;;16.33;2.88;;;18.40;99.90;;;;;;20826424;28;20034;-76
2022/06/13 06:30:44;;;;;;;6.83;2.47;;;18.20;99.90;;;;;;20825535;28;20037;-76
2022/06/13 06:40:45;;;;;;;7.43;2.63;;;18.30;99.90;;;;;;20827565;28;20037;-75
2022/06/13 06:50:49;;;;;;;6.80;1.93;;;18.80;99.90;;;;;;20827908;28;20037;-76
2022/06/13 07:00:51;;;;;;;3.28;1.65;;;18.60;99.90;;;;;;20825156;28;20037;-76
2022/06/13 07:10:52;;;;;;;5.88;1.75;;;18.90;99.90;;;;;;20831611;28;20128;-78
2022/06/13 07:20:53;;;;;;;2.43;1.30;;;19.20;99.90;;;;;;20848610;28;20041;-77
2022/06/13 07:30:54;;;;;;;6.53;2.63;;;19.50;99.90;;;;;;20847104;28;20037;-78
2022/06/13 07:41:00;;;;;;;3.38;1.70;;;20.40;99.90;;;;;;20860680;28;20041;-78
2022/06/13 07:51:02;;;;;;;5.70;2.22;;;21.20;99.90;;;;;;20854641;28;20412;-77
2022/06/13 08:01:04;;;;;;;8.98;1.55;;;22.20;99.90;;;;;;20852316;28;20065;-78
2022/06/13 08:11:07;;;;;;;10.77;1.55;;;21.50;99.90;;;;;;20851820;28;20039;-77
2022/06/13 08:21:10;;;;;;;4.65;1.40;;;22.20;99.90;;;;;;20851026;28;20042;-76
2022/06/13 08:31:14;;;;;;;5.65;1.67;;;22.40;99.90;;;;;;20851632;28;20108;-77
2022/06/13 08:41:21;;;;;;;9.90;1.92;;;22.90;99.90;;;;;;20850811;28;20033;-76
2022/06/13 08:51:46;;;;;;;3.63;1.60;;;22.80;99.90;;;;;;20847449;28;20040;-78
2022/06/13 09:02:00;;;;;;;5.60;1.58;;;23.00;99.90;;;;;;20851512;28;20065;-78
2022/06/13 09:12:11;;;;;;;5.60;1.92;;;23.40;99.90;;;;;;20850138;28;20060;-78
2022/06/13 09:22:31;;;;;;;5.18;1.38;;;23.40;99.90;;;;;;20850663;28;20561;-76
2022/06/13 09:32:41;;;;;;;6.43;0.95;;;24.30;99.90;;;;;;20857805;28;20586;-78
2022/06/13 09:42:58;;;;;;;4.38;1.00;;;24.10;99.90;;;;;;20853578;28;20500;-77
2022/06/13 09:53:20;;;;;;;2.83;1.00;;;24.70;99.90;;;;;;20853967;28;20111;-77
2022/06/13 10:03:41;;;;;;;2.05;0.95;;;24.50;99.90;;;;;;20841320;28;20038;-77
2022/06/13 10:14:06;;;;;;;2.83;0.90;;;25.70;99.90;;;;;;20858304;28;20076;-77
2022/06/13 10:24:16;;;;;;;2.80;1.02;;;25.70;99.90;;;;;;20884684;28;20407;-76
2022/06/13 10:34:25;;;;;;;3.63;1.00;;;26.60;99.90;;;;;;20924956;28;20123;-77
2022/06/13 10:44:26;;;;;;;3.92;1.33;;;26.30;99.90;;;;;;20927026;28;20045;-77
2022/06/13 10:54:37;;;;;;;4.15;0.82;;;26.30;99.90;;;;;;20894742;28;20039;-76
2022/06/13 11:04:38;;;;;;;5.82;0.93;;;25.20;99.90;;;;;;20829249;28;20049;-77
2022/06/13 11:25:19;;;;;;;4.50;1.30;;;24.40;99.90;;;;;;20844652;28;20045;-76
2022/06/13 11:35:50;;;;;;;4.97;1.30;;;25.50;99.90;;;;;;20843315;28;20053;-76
2022/06/13 11:45:58;;;;;;;4.77;1.17;;;24.80;99.90;;;;;;20889308;28;20109;-74
2022/06/13 11:56:00;;;;;;;4.63;1.38;;;24.80;99.90;;;;;;20926980;28;20040;-76
2022/06/13 12:06:11;;;;;;;5.20;1.02;;;25.70;99.90;;;;;;20927395;28;20048;-76
2022/06/13 12:16:21;;;;;;;3.63;1.10;;;25.30;99.90;;;;;;20932976;28;20044;-77
2022/06/13 12:26:31;;;;;;;6.03;1.30;;;25.90;99.90;;;;;;20935668;28;20036;-76
2022/06/13 12:36:52;;;;;;;12.90;1.27;;;26.80;99.90;;;;;;20930599;28;20049;-76
2022/06/13 12:47:11;;;;;;;4.47;1.47;;;25.50;99.90;;;;;;20927326;28;20037;-76
2022/06/13 12:57:20;;;;;;;2.40;0.90;;;26.00;99.90;;;;;;20919963;28;20051;-76
2022/06/13 13:07:24;;;;;;;5.40;1.38;;;26.40;99.90;;;;;;20915005;28;20051;-76
2022/06/13 13:17:45;;;;;;;7.03;1.20;;;25.60;99.90;;;;;;20921584;28;20397;-75
2022/06/13 13:28:16;;;;;;;3.53;1.50;;;25.80;99.90;;;;;;20915388;28;20526;-76
2022/06/13 13:38:23;;;;;;;6.03;1.20;;;25.80;99.90;;;;;;20912117;28;20377;-75
2022/06/13 13:48:53;;;;;;;4.43;0.90;;;26.20;99.90;;;;;;20911725;28;20072;-76
2022/06/13 13:58:56;;;;;;;4.45;0.95;;;26.00;99.90;;;;;;20909451;28;20118;-76
2022/06/13 14:08:59;;;;;;;3.83;1.10;;;26.70;99.90;;;;;;20912809;28;20068;-76
2022/06/13 14:19:24;;;;;;;2.88;1.23;;;27.00;99.90;;;;;;20842065;22;20085;-75
2022/06/13 14:29:24;;;;;;;2.00;0.82;;;26.70;99.90;;;;;;20788077;28;20073;-75
2022/06/13 14:39:45;;;;;;;3.03;0.77;;;27.20;95.30;;;;;;20786762;28;20581;-75
2022/06/13 14:49:51;;;;;;;3.57;0.90;;;27.20;96.10;;;;;;20767882;28;20288;-76
2022/06/13 15:00:04;;;;;;;3.70;1.00;;;27.10;97.10;;;;;;20837522;28;20045;-75
2022/06/13 15:10:12;;;;;;;3.72;1.00;;;26.90;97.70;;;;;;20829216;28;20116;-75
2022/06/13 15:20:21;;;;;;;6.90;1.60;;;26.60;97.60;;;;;;20830187;28;20115;-75
2022/06/13 15:30:29;;;;;;;3.00;0.70;;;26.10;97.40;;;;;;20828876;28;20048;-75
2022/06/13 15:40:33;;;;;;;5.93;1.02;;;26.30;96.90;;;;;;20829967;28;20072;-75
2022/06/13 15:50:35;;;;;;;3.47;0.90;;;26.30;96.20;;;;;;20829515;28;20045;-75
2022/06/13 16:00:40;;;;;;;8.10;1.20;;;25.80;97.50;;;;;;20822251;28;20120;-75
2022/06/13 16:10:45;;;;;;;5.40;1.00;;;25.60;96.70;;;;;;20818357;28;20049;-75
2022/06/13 16:20:51;;;;;;;3.63;1.20;;;25.60;96.90;;;;;;20822193;28;20058;-75
2022/06/13 16:30:54;;;;;;;3.92;0.88;;;25.40;99.20;;;;;;20819055;28;20673;-75
2022/06/13 16:40:55;;;;;;;3.13;1.00;;;25.40;96.90;;;;;;20813972;28;20459;-75
2022/06/13 16:51:10;;;;;;;;;;;24.90;97.50;;;;;;20796532;28;20124;-75
2022/06/13 17:01:12;;;;;;;1.90;0.90;;;24.60;96.70;;;;;;20794492;28;20662;-75
2022/06/13 17:11:13;;;;;;;3.28;1.00;;;24.90;98.10;;;;;;20810916;28;20515;-75
2022/06/13 17:21:15;;;;;;;;;;;25.00;97.60;;;;;;20792108;28;20060;-75
2022/06/13 17:41:38;;;;;;;1.92;0.82;;;24.50;97.10;;;;;;20809447;28;20127;-75
2022/06/13 17:51:40;;;;;;;3.28;1.40;;;24.90;97.90;;;;;;20808530;28;20618;-75
2022/06/13 18:01:42;;;;;;;2.63;0.93;;;25.10;98.90;;;;;;20774196;28;20503;-75
2022/06/13 18:11:43;;;;;;;2.55;0.88;;;25.90;98.50;;;;;;20809600;28;20048;-75
2022/06/13 18:21:44;;;;;;;;;;;26.70;97.30;;;;;;20835039;28;20045;-76
2022/06/13 18:31:44;;;;;;;1.85;0.90;;;28.40;97.40;;;;;;20829568;28;20294;-76
2022/06/13 18:41:45;;;;;;;6.93;2.20;;;27.40;99.70;;;;;;20808419;28;20041;-75
2022/06/13 18:51:46;;;;;;;;;;;24.60;99.90;;;;;;20825459;28;20299;-75
2022/06/13 19:01:47;;;;;;;10.50;1.67;;;22.20;99.90;;;;;;20806822;28;19913;-75
2022/06/13 19:11:50;;;;;;;6.03;1.80;;;21.00;99.90;;;;;;20806440;28;20037;-76
2022/06/13 19:21:52;;;;;;;6.18;1.60;;;20.60;99.90;;;;;;20823413;28;20048;-76
2022/06/13 19:32:01;;;;;;;6.45;2.00;;;20.50;99.90;;;;;;20825414;28;20108;-75
2022/06/13 19:42:03;;;;;;;6.45;1.40;;;19.80;99.90;;;;;;20804164;28;20719;-75
2022/06/13 19:52:06;;;;;;;3.00;1.48;;;19.40;99.90;;;;;;20819820;28;20048;-75
2022/06/13 20:02:07;;;;;;;2.63;1.00;;;19.20;99.90;;;;;;20836514;28;20423;-76
2022/06/13 20:12:08;;;;;;;3.50;1.67;;;19.00;99.90;;;;;;20835685;28;20037;-75
2022/06/13 20:22:10;;;;;;;5.47;1.50;;;18.90;99.90;;;;;;20849127;23;20053;-76
2022/06/13 20:32:12;;;;;;;5.00;1.63;;;18.60;99.90;;;;;;20835096;28;20054;-76
2022/06/13 20:42:14;;;;;;;;;;;18.70;99.90;;;;;;20834102;28;20116;-76
2022/06/13 20:52:15;;;;;;;3.38;1.38;;;18.50;99.90;;;;;;20836072;28;20401;-76
2022/06/13 21:02:19;;;;;;;3.77;1.27;;;18.20;99.90;;;;;;20852012;28;20041;-75
2022/06/13 21:12:21;;;;;;;5.53;2.10;;;17.80;99.90;;;;;;20842645;28;20037;-75
2022/06/13 21:22:22;;;;;;;2.83;1.63;;;17.70;99.90;;;;;;20852208;28;20388;-75
2022/06/13 21:32:23;;;;;;;3.77;1.60;;;17.50;99.90;;;;;;20849003;28;20037;-76
2022/06/13 21:42:24;;;;;;;7.53;1.60;;;17.20;99.90;;;;;;20857651;28;20087;-76
2022/06/13 21:52:25;;;;;;;3.63;1.50;;;16.90;99.90;;;;;;20864608;28;20052;-75
2022/06/13 22:02:27;;;;;;;3.93;1.40;;;17.00;99.90;;;;;;20856012;28;20048;-74
2022/06/13 22:12:31;;;;;;;3.05;1.92;;;16.80;99.90;;;;;;20833469;28;20510;-75
2022/06/13 22:22:32;;;;;;;4.80;1.38;;;15.70;99.90;;;;;;20826613;28;20033;-75
2022/06/13 22:32:33;;;;;;;2.77;1.70;;;16.10;99.90;;;;;;20880236;28;20085;-75
2022/06/13 22:42:34;;;;;;;3.53;1.50;;;15.00;99.90;;;;;;20854021;28;20096;-75
2022/06/13 22:52:38;;;;;;;6.67;1.50;;;15.00;99.90;;;;;;20876848;28;20120;-76
2022/06/13 23:02:39;;;;;;;4.47;1.75;;;15.30;99.90;;;;;;20825049;28;20041;-76
2022/06/13 23:12:39;;;;;;;2.63;1.57;;;15.30;99.90;;;;;;20851539;28;20037;-76
2022/06/13 23:22:41;;;;;;;3.90;1.50;;;15.10;99.90;;;;;;20839888;28;20044;-76
2022/06/13 23:32:41;;;;;;;3.30;1.47;;;15.10;99.90;;;;;;20839216;28;20041;-76
2022/06/13 23:42:42;;;;;;;2.87;1.57;;;15.00;99.90;;;;;;20820757;28;20048;-76
2022/06/13 23:52:43;;;;;;;2.13;1.70;;;15.20;99.90;;;;;;20837814;28;20049;-76
